Time;durP1;ratioP1;P1;durP2;ratioP2;P2;SDS_P1;SDS_P2;PMS_P1;PMS_P2;Temp;Humidity;BMP_temperature;BMP_pressure;BME280_temperature;BME280_humidity;BME280_pressure;Samples;Min_cycle;Max_cycle;Signal;HPM_P1;HPM_P2
2023/04/17 00:00:03;;;;;;;5.55;3.08;;;;;;;8.79;85.29;98215.72;5981253;24;20028;-93
2023/04/17 00:06:33;;;;;;;5.35;3.50;;;;;;;8.58;85.18;98172.13;5933959;24;20028;-93
2023/04/17 00:09:29;;;;;;;6.57;3.50;;;;;;;8.61;84.91;98170.25;5968874;24;20024;-93
2023/04/17 00:12:34;;;;;;;5.18;3.60;;;;;;;8.64;84.71;98169.31;5886976;24;20117;-93
2023/04/17 00:15:17;;;;;;;5.60;3.53;;;;;;;8.67;84.74;98166.53;5882848;24;20025;-94
2023/04/17 00:18:06;;;;;;;6.65;3.67;;;;;;;8.82;85.50;98195.25;5965768;24;20027;-93
2023/04/17 00:20:48;;;;;;;6.55;3.70;;;;;;;8.95;84.72;98202.88;5999034;23;20474;-94
2023/04/17 00:24:18;;;;;;;6.88;3.90;;;;;;;9.01;84.67;98208.84;6019041;23;20034;-94
2023/04/17 00:27:06;;;;;;;7.63;4.00;;;;;;;8.66;85.28;98167.47;5998075;23;20102;-93
2023/04/17 00:30:07;;;;;;;6.65;3.72;;;;;;;8.72;84.27;98154.06;5998007;23;20015;-93
2023/04/17 00:33:16;;;;;;;6.47;4.03;;;;;;;8.89;84.82;98181.81;6107352;23;20029;-92
2023/04/17 00:35:54;;;;;;;7.32;4.85;;;;;;;9.01;85.22;98208.00;6106517;23;20509;-95
2023/04/17 00:38:50;;;;;;;6.40;3.60;;;;;;;8.70;85.04;98160.31;6106700;23;20026;-94
2023/04/17 00:41:51;;;;;;;6.07;3.70;;;;;;;8.70;85.70;98161.19;6106582;23;20018;-92
2023/04/17 00:44:28;;;;;;;;;;;;;;;8.98;85.42;98203.66;6108017;23;20025;-92
2023/04/17 00:47:50;;;;;;;6.65;3.67;;;;;;;9.00;85.31;98204.47;6106995;23;19920;-93
2023/04/17 00:50:43;;;;;;;6.10;4.15;;;;;;;8.80;85.57;98167.06;6099576;23;20015;-95
2023/04/17 00:54:24;;;;;;;6.55;3.72;;;;;;;8.71;85.16;98144.34;6094136;23;20445;-93
2023/04/17 00:57:04;;;;;;;5.97;3.80;;;;;;;8.75;84.94;98147.78;6106688;23;20037;-92
2023/04/17 00:59:38;;;;;;;6.43;3.90;;;;;;;8.93;85.57;98178.19;6105296;23;20022;-92
2023/04/17 01:02:31;;;;;;;7.25;4.35;;;;;;;8.68;86.43;98140.94;6106540;23;20022;-94
2023/04/17 01:09:14;;;;;;;6.38;3.83;;;;;;;9.11;85.15;98179.41;6073228;23;20042;-93
2023/04/17 01:12:21;;;;;;;6.35;3.80;;;;;;;8.87;84.61;98141.22;6053311;23;20046;-94
2023/04/17 01:15:22;;;;;;;5.78;3.60;;;;;;;9.17;84.97;98185.41;6093027;23;20166;-94
2023/04/17 01:18:14;;;;;;;6.20;3.83;;;;;;;9.19;85.16;98190.63;6101365;23;20026;-93
2023/04/17 01:20:56;;;;;;;5.78;3.53;;;;;;;9.15;84.13;98163.38;6108322;23;20357;-94
2023/04/17 01:24:09;;;;;;;6.32;3.70;;;;;;;9.23;84.90;98179.03;6107785;23;20441;-94
2023/04/17 01:27:11;;;;;;;7.53;4.40;;;;;;;9.41;84.53;98185.53;6105490;23;20081;-92
2023/04/17 01:29:56;;;;;;;6.68;3.90;;;;;;;9.22;84.63;98153.44;6107113;23;20022;-94
2023/04/17 01:32:59;;;;;;;5.60;3.75;;;;;;;9.43;83.80;98195.22;6106692;23;20033;-95
2023/04/17 01:39:03;;;;;;;5.55;3.50;;;;;;;9.31;84.38;98169.03;6029287;23;20162;-92
2023/04/17 01:41:46;;;;;;;5.50;3.92;;;;;;;9.27;83.35;98150.63;6025410;23;20446;-95
2023/04/17 01:44:44;;;;;;;5.75;3.80;;;;;;;9.21;83.96;98144.56;6023112;23;20023;-92
2023/04/17 01:47:26;;;;;;;6.20;4.03;;;;;;;9.35;83.48;98172.47;6022863;23;20453;-91
2023/04/17 01:50:09;;;;;;;5.93;4.05;;;;;;;9.43;83.89;98183.69;6022952;23;20019;-94
2023/04/17 01:52:46;;;;;;;6.57;3.75;;;;;;;9.11;83.84;98137.84;6023541;23;20019;-94
2023/04/17 01:58:57;;;;;;;6.25;4.13;;;;;;;9.44;83.50;98190.75;6024659;23;20019;-94
2023/04/17 02:01:42;;;;;;;6.78;4.00;;;;;;;9.43;82.64;98181.94;6014479;23;20027;-95
2023/04/17 02:04:34;;;;;;;8.95;3.90;;;;;;;9.24;82.39;98141.84;6025248;23;20375;-93
2023/04/17 02:07:51;;;;;;;5.43;3.58;;;;;;;9.27;81.25;98142.66;6025256;23;20023;-93
2023/04/17 02:10:58;;;;;;;;;;;;;;;;;;;;;
2023/04/17 02:14:14;;;;;;;5.88;4.03;;;;;;;9.26;81.06;98141.81;5907972;24;20033;-93
2023/04/17 02:16:52;;;;;;;6.57;3.97;;;;;;;9.36;79.64;98137.06;5970390;24;20049;-93
2023/04/17 02:19:41;;;;;;;6.85;3.75;;;;;;;9.45;80.17;98156.22;5968651;24;20016;-94
2023/04/17 02:22:20;;;;;;;6.00;3.45;;;;;;;9.45;80.25;98165.94;5972388;24;20112;-94
2023/04/17 02:24:57;;;;;;;6.00;3.95;;;;;;;9.42;80.26;98171.34;5965384;24;20032;-94
2023/04/17 02:27:37;;;;;;;5.22;3.70;;;;;;;9.46;80.04;98181.81;5942320;24;20096;-94
2023/04/17 02:34:45;;;;;;;;;;;;;;;;;;;;;
2023/04/17 02:38:22;;;;;;;6.22;3.90;;;;;;;9.25;79.09;98137.41;5826363;24;20091;-91
2023/04/17 02:42:11;;;;;;;7.15;4.00;;;;;;;9.14;80.06;98129.78;5651300;25;20089;-94
2023/04/17 03:00:26;;;;;;;;;;;;;;;;;;;;;
2023/04/17 03:03:15;;;;;;;4.97;3.38;;;;;;;9.12;79.13;98152.81;5597051;25;20159;-93
2023/04/17 03:06:02;;;;;;;5.32;3.45;;;;;;;9.30;78.94;98183.22;5584230;25;20069;-93
2023/04/17 03:16:29;;;;;;;5.85;3.08;;;;;;;9.19;79.64;98182.69;5798195;24;20127;-94
2023/04/17 03:19:01;;;;;;;5.30;3.13;;;;;;;8.86;79.67;98128.91;5846463;24;20014;-92
2023/04/17 03:21:40;;;;;;;6.35;3.75;;;;;;;8.94;79.98;98148.09;5854920;24;20042;-95
2023/04/17 03:24:50;;;;;;;6.32;3.88;;;;;;;9.12;79.65;98179.34;5895666;24;20033;-93
2023/04/17 03:28:14;;;;;;;5.97;3.40;;;;;;;8.80;79.91;98119.34;5932955;24;20025;-90
2023/04/17 03:31:07;;;;;;;5.63;3.55;;;;;;;9.15;79.62;98175.72;5910359;24;20029;-93
2023/04/17 03:34:28;;;;;;;5.45;3.38;;;;;;;8.89;79.61;98136.75;5923052;24;20053;-94
2023/04/17 03:37:20;;;;;;;6.15;4.03;;;;;;;9.01;80.28;98169.06;5908088;24;20021;-91
2023/04/17 03:39:58;;;;;;;6.20;3.72;;;;;;;8.90;79.70;98147.31;5988623;23;20024;-94
2023/04/17 03:42:49;;;;;;;7.03;3.50;;;;;;;9.09;79.80;98171.50;5995962;23;20079;-94
2023/04/17 03:45:34;;;;;;;5.35;3.35;;;;;;;8.82;79.49;98128.13;5911971;24;20535;-94
2023/04/17 03:48:30;;;;;;;5.50;2.97;;;;;;;8.92;78.76;98126.94;6005705;23;20166;-95
2023/04/17 03:51:23;;;;;;;5.43;3.25;;;;;;;8.86;79.22;98127.13;6024366;23;20023;-93
2023/04/17 03:54:44;;;;;;;;;;;;;;;;;;;;;
2023/04/17 03:58:41;;;;;;;;;;;;;;;;;;;;;
2023/04/17 04:02:31;;;;;;;5.10;3.10;;;;;;;9.21;78.40;98178.19;5827991;24;20050;-93
2023/04/17 04:06:02;;;;;;;4.70;3.20;;;;;;;9.21;78.14;98179.06;5853641;24;20056;-93
2023/04/17 04:09:38;;;;;;;;;;;;;;;;;;;;;
2023/04/17 04:23:59;;;;;;;5.45;3.67;;;;;;;9.00;78.81;98163.81;5675411;25;20045;-95
2023/04/17 04:31:03;;;;;;;6.50;3.08;;;;;;;8.88;78.40;98145.63;5725309;25;20024;-95
2023/04/17 04:34:15;;;;;;;6.03;3.20;;;;;;;8.87;78.15;98130.63;5645345;25;20047;-93
2023/04/17 04:55:33;;;;;;;5.05;3.15;;;;;;;9.32;77.42;98197.31;5728353;25;20035;-94
2023/04/17 04:58:41;;;;;;;7.22;3.40;;;;;;;9.40;76.89;98189.13;5705807;25;20032;-94
2023/04/17 05:02:15;;;;;;;5.45;3.38;;;;;;;9.07;77.24;98146.81;5725975;25;20465;-93
2023/04/17 05:05:40;;;;;;;6.53;3.20;;;;;;;9.30;76.72;98167.28;5726229;25;20086;-91
2023/04/17 05:20:08;;;;;;;4.68;3.10;;;;;;;9.43;76.57;98170.44;5623474;25;20075;-94
2023/04/17 05:23:07;;;;;;;;;;;;;;;;;;;;;
2023/04/17 05:25:34;;;;;;;6.00;3.85;;;;;;;9.41;76.32;98180.22;5587729;25;20031;-92
2023/04/17 05:28:15;;;;;;;5.72;3.60;;;;;;;9.45;76.72;98192.47;5597443;25;20050;-94
2023/04/17 05:33:50;;;;;;;4.78;3.40;;;;;;;9.62;75.45;98173.38;5596946;25;20073;-92
2023/04/17 05:36:35;;;;;;;5.72;4.20;;;;;;;9.84;75.43;98205.38;5579971;25;20070;-93
2023/04/17 05:39:48;;;;;;;5.60;3.20;;;;;;;9.61;74.82;98148.63;5588418;25;20026;-94
2023/04/17 05:42:56;;;;;;;5.47;3.90;;;;;;;10.06;74.35;98197.56;5579403;25;20030;-94
2023/04/17 05:49:38;;;;;;;5.18;3.00;;;;;;;9.95;73.61;98176.66;5733166;25;20027;-95
2023/04/17 05:56:12;;;;;;;5.05;3.10;;;;;;;9.88;72.90;98157.41;5747637;25;20028;-93
2023/04/17 06:00:20;;;;;;;4.78;3.20;;;;;;;10.30;72.75;98184.38;5721031;25;20043;-94
2023/04/17 06:03:05;;;;;;;4.97;3.05;;;;;;;10.36;71.76;98185.03;5749953;24;20004;-96
2023/04/17 06:05:45;;;;;;;9.65;3.67;;;;;;;10.35;71.12;98167.34;5729862;25;20031;-94
2023/04/17 06:09:03;;;;;;;5.97;3.30;;;;;;;10.48;70.83;98210.31;5744418;24;20052;-92
2023/04/17 06:12:13;;;;;;;7.05;3.38;;;;;;;10.59;70.75;98220.56;5813346;24;20026;-92
2023/04/17 06:15:02;;;;;;;5.05;3.40;;;;;;;10.58;70.84;98218.81;5796605;24;20114;-92
2023/04/17 06:17:44;;;;;;;5.32;2.92;;;;;;;10.74;70.49;98217.34;5827700;24;20050;-93
2023/04/17 06:20:36;;;;;;;6.05;3.30;;;;;;;10.53;71.13;98180.91;5828759;24;20023;-95
2023/04/17 06:23:37;;;;;;;5.47;3.10;;;;;;;10.49;70.60;98177.47;5804149;24;20027;-94
2023/04/17 06:26:11;;;;;;;4.37;3.00;;;;;;;10.59;70.98;98207.28;5916654;24;20396;-93
2023/04/17 06:31:43;;;;;;;3.90;2.80;;;;;;;10.59;71.48;98189.53;6022928;23;20051;-95
2023/04/17 06:34:23;;;;;;;4.22;2.78;;;;;;;10.69;71.19;98224.59;6054114;23;20405;-93
2023/04/17 06:37:23;;;;;;;4.13;2.53;;;;;;;10.67;71.14;98198.09;6078415;23;20390;-91
2023/04/17 06:39:54;;;;;;;5.20;2.70;;;;;;;10.78;70.65;98186.16;6054523;23;20019;-92
2023/04/17 06:42:39;;;;;;;3.70;2.75;;;;;;;10.94;71.37;98221.91;6055218;23;20453;-95
2023/04/17 06:45:33;;;;;;;4.05;2.80;;;;;;;11.03;70.62;98196.75;6057021;23;20453;-95
2023/04/17 06:50:59;;;;;;;4.70;2.70;;;;;;;11.24;69.76;98198.59;5968290;24;20027;-93
2023/04/17 06:53:46;;;;;;;4.60;2.78;;;;;;;11.50;69.18;98189.59;5969245;24;20024;-94
2023/04/17 06:56:36;;;;;;;4.97;2.75;;;;;;;11.70;68.83;98214.53;5972996;24;20585;-94
2023/04/17 06:59:33;;;;;;;;;;;;;;;;;;;;;
2023/04/17 07:02:44;;;;;;;4.53;3.00;;;;;;;11.31;70.85;98204.56;5968830;24;20024;-91
2023/04/17 07:05:13;;;;;;;6.10;3.40;;;;;;;11.14;71.17;98218.50;5965346;24;20024;-91
2023/04/17 07:08:41;;;;;;;5.22;2.90;;;;;;;11.29;71.19;98215.25;5969517;24;20073;-94
2023/04/17 07:15:35;;;;;;;;;;;;;;;;;;;;;
2023/04/17 07:18:45;;;;;;;5.45;2.97;;;;;;;11.66;69.68;98221.78;5776748;24;20086;-94
2023/04/17 07:25:16;;;;;;;3.80;2.78;;;;;;;11.80;69.56;98237.22;5744601;25;20032;-94
2023/04/17 07:31:32;;;;;;;3.95;2.60;;;;;;;11.81;70.02;98238.09;5691226;24;20036;-93
2023/04/17 07:31:49;;;;;;;3.78;2.60;;;;;;;11.78;69.51;98243.56;5752585;25;20059;-93
2023/04/17 07:39:14;;;;;;;3.72;2.72;;;;;;;11.83;69.02;98191.78;5825332;24;20030;-93
2023/04/17 07:46:31;;;;;;;;;;;;;;;;;;;;;
2023/04/17 08:00:24;;;;;;;5.05;2.55;;;;;;;13.02;65.18;98224.03;5761502;24;20023;-93
2023/04/17 08:16:18;;;;;;;3.58;2.53;;;;;;;12.45;67.89;98279.91;5751341;24;20020;-93
2023/04/17 08:19:49;;;;;;;5.85;2.80;;;;;;;12.23;66.48;98234.59;5750800;25;20016;-94
2023/04/17 08:26:50;;;;;;;3.85;2.60;;;;;;;12.65;65.84;98276.38;5873114;24;20044;-94
2023/04/17 08:29:38;;;;;;;4.35;3.00;;;;;;;12.63;66.37;98283.56;5861895;24;20030;-93
2023/04/17 08:32:32;;;;;;;4.47;2.80;;;;;;;12.16;67.82;98244.66;5900587;24;20024;-92
2023/04/17 08:35:36;;;;;;;3.30;2.53;;;;;;;12.51;67.14;98296.50;5985254;24;20020;-94
2023/04/17 08:38:29;;;;;;;3.53;2.60;;;;;;;12.61;67.07;98280.09;5969584;24;20032;-94
2023/04/17 08:45:16;;;;;;;4.63;2.80;;;;;;;12.41;67.21;98267.63;5887034;24;20111;-92
2023/04/17 08:49:18;;;;;;;3.83;2.53;;;;;;;12.67;66.44;98295.84;5887521;24;20021;-93
2023/04/17 08:52:24;;;;;;;5.93;2.55;;;;;;;12.38;67.25;98249.06;5847609;24;20033;-91
2023/04/17 08:54:54;;;;;;;5.95;2.67;;;;;;;12.71;66.95;98284.97;5884885;24;20022;-93
2023/04/17 08:57:55;;;;;;;4.55;2.70;;;;;;;12.64;66.44;98258.63;5887310;24;20025;-92
2023/04/17 09:01:21;;;;;;;;;;;;;;;;;;;;;
2023/04/17 09:03:57;;;;;;;4.55;2.55;;;;;;;12.52;66.06;98276.03;5986407;23;20106;-93
2023/04/17 09:07:08;;;;;;;3.75;2.50;;;;;;;12.47;67.95;98302.00;5996613;23;20488;-92
2023/04/17 09:10:19;;;;;;;4.15;2.35;;;;;;;12.33;67.81;98281.28;5884753;24;20370;-92
2023/04/17 09:13:29;;;;;;;3.55;2.25;;;;;;;12.29;68.11;98283.19;5897786;24;20082;-93
2023/04/17 09:20:36;;;;;;;;;;;;;;;;;;;;;
2023/04/17 09:27:50;;;;;;;3.58;2.60;;;;;;;13.34;64.53;98260.81;5810326;24;20031;-95
2023/04/17 09:30:42;;;;;;;3.33;2.40;;;;;;;13.82;64.45;98265.72;5731775;24;20051;-95
2023/04/17 09:40:08;;;;;;;3.42;2.28;;;;;;;13.71;65.22;98266.25;5676174;25;20021;-94
2023/04/17 09:43:03;;;;;;;4.32;2.78;;;;;;;12.95;66.30;98268.81;5676098;25;20024;-95
2023/04/17 09:46:02;;;;;;;4.78;2.75;;;;;;;13.07;67.30;98286.06;5717627;25;20023;-94
2023/04/17 09:52:27;;;;;;;3.60;2.65;;;;;;;12.78;68.17;98269.56;5726649;25;20022;-91
2023/04/17 09:55:09;;;;;;;;;;;;;;;;;;;;;
2023/04/17 10:02:18;;;;;;;3.10;2.20;;;;;;;13.68;64.03;98255.69;5728584;25;20135;-94
2023/04/17 10:05:07;;;;;;;;;;;;;;;;;;;;;
2023/04/17 10:07:55;;;;;;;4.40;2.20;;;;;;;14.09;61.23;98275.06;5754473;25;20039;-92
2023/04/17 10:10:23;;;;;;;2.78;2.33;;;;;;;13.92;62.14;98275.00;5725195;25;20083;-94
2023/04/17 10:13:18;;;;;;;4.35;2.30;;;;;;;14.01;62.10;98255.88;5749035;24;20026;-94
2023/04/17 10:16:54;;;;;;;3.83;2.10;;;;;;;14.06;61.87;98290.41;5829287;24;20054;-93
2023/04/17 10:19:41;;;;;;;;;;;;;;;;;;;;;
2023/04/17 10:23:05;;;;;;;3.97;2.30;;;;;;;14.37;62.42;98297.75;5884960;24;20056;-90
2023/04/17 10:26:09;;;;;;;3.25;2.50;;;;;;;14.23;62.91;98279.72;5804463;24;20031;-94
2023/04/17 10:29:18;;;;;;;;;;;;;;;;;;;;;
2023/04/17 10:32:16;;;;;;;2.80;2.15;;;;;;;14.55;61.60;98267.44;5795184;24;20022;-94
2023/04/17 10:34:47;;;;;;;2.83;2.20;;;;;;;14.55;61.73;98250.50;5808425;24;20023;-94
2023/04/17 10:38:12;;;;;;;3.97;2.45;;;;;;;14.54;59.98;98233.56;5807716;24;20158;-93
2023/04/17 10:40:49;;;;;;;3.92;2.28;;;;;;;15.37;58.77;98271.16;5812221;24;20176;-93
2023/04/17 10:43:25;;;;;;;2.95;2.20;;;;;;;15.69;55.56;98234.53;5942925;24;20021;-94
2023/04/17 10:50:10;;;;;;;4.32;2.95;;;;;;;15.38;57.64;98273.75;5916728;24;20108;-96
2023/04/17 10:53:35;;;;;;;3.05;2.28;;;;;;;15.19;57.58;98268.53;5862452;24;20056;-95
2023/04/17 10:56:44;;;;;;;2.80;2.20;;;;;;;14.71;59.83;98261.31;5931052;23;20011;-93
2023/04/17 10:59:53;;;;;;;3.75;2.42;;;;;;;14.46;62.11;98278.56;6022725;23;20032;-92
2023/04/17 11:02:37;;;;;;;3.38;2.60;;;;;;;14.01;63.24;98260.34;5962982;23;20028;-93
2023/04/17 11:06:21;;;;;;;;;;;;;;;;;;;;;
2023/04/17 11:09:17;;;;;;;4.32;2.58;;;;;;;14.93;61.87;98261.88;5859772;24;20026;-94
2023/04/17 11:15:55;;;;;;;3.20;2.47;;;;;;;14.67;62.15;98271.28;5787939;24;20050;-93
2023/04/17 11:19:09;;;;;;;;;;;;;;;;;;;;;
2023/04/17 11:22:32;;;;;;;3.58;2.47;;;;;;;13.85;62.67;98218.31;5863639;24;20039;-93
2023/04/17 11:28:52;;;;;;;5.10;2.60;;;;;;;14.16;63.23;98236.41;5922493;24;20057;-94
2023/04/17 11:32:00;;;;;;;;;;;;;;;;;;;;;
2023/04/17 11:35:27;;;;;;;5.22;2.92;;;;;;;14.15;62.59;98248.00;5923613;24;20024;-93
2023/04/17 11:38:44;;;;;;;4.90;2.55;;;;;;;14.50;61.59;98248.03;5947662;24;20008;-93
2023/04/17 11:41:56;;;;;;;3.80;2.72;;;;;;;14.37;62.37;98241.59;5967450;24;20110;-91
2023/04/17 11:44:46;;;;;;;4.35;2.72;;;;;;;13.98;63.08;98231.94;5943254;24;20080;-93
2023/04/17 11:47:24;;;;;;;3.67;2.80;;;;;;;13.82;64.18;98213.13;6083097;23;20086;-92
2023/04/17 11:50:00;;;;;;;3.70;2.83;;;;;;;13.77;65.18;98208.03;6078104;23;20023;-92
2023/04/17 11:52:35;;;;;;;4.20;2.70;;;;;;;14.35;62.70;98219.41;6077636;23;20034;-93
2023/04/17 11:55:17;;;;;;;4.10;3.00;;;;;;;14.41;63.43;98248.50;6078843;23;20026;-94
2023/04/17 11:57:50;;;;;;;5.35;3.00;;;;;;;14.13;63.34;98224.97;6076307;23;20023;-93
2023/04/17 12:00:29;;;;;;;4.95;2.85;;;;;;;13.92;63.11;98214.44;6077517;23;20117;-91
2023/04/17 12:03:19;;;;;;;4.45;2.92;;;;;;;14.18;63.78;98237.19;6077687;23;20023;-94
2023/04/17 12:05:58;;;;;;;3.75;2.88;;;;;;;14.60;62.79;98221.72;6076923;23;20039;-93
2023/04/17 12:09:18;;;;;;;5.20;2.83;;;;;;;14.68;61.73;98192.75;6079971;23;20438;-92
2023/04/17 12:12:02;;;;;;;;;;;;;;;;;;;;;
2023/04/17 12:15:01;;;;;;;3.83;2.85;;;;;;;15.13;60.45;98241.22;6077648;23;20019;-93
2023/04/17 12:18:14;;;;;;;4.18;2.90;;;;;;;15.39;60.89;98234.44;6066589;23;20023;-93
2023/04/17 12:20:51;;;;;;;4.45;3.13;;;;;;;16.02;57.66;98223.72;6081817;23;20307;-93
2023/04/17 12:24:01;;;;;;;3.97;2.78;;;;;;;15.53;58.18;98205.06;6083275;23;20132;-94
2023/04/17 12:30:06;;;;;;;;;;;;;;;15.15;61.71;98242.00;6098793;23;20033;-92
2023/04/17 12:33:01;;;;;;;4.40;3.05;;;;;;;15.06;60.47;98237.16;6112495;23;19917;-92
2023/04/17 12:38:56;;;;;;;4.85;3.30;;;;;;;15.44;59.23;98205.59;6111325;23;20022;-94
2023/04/17 12:41:41;;;;;;;4.75;2.95;;;;;;;15.41;59.54;98197.72;6111523;23;20022;-93
2023/04/17 12:45:10;;;;;;;3.80;2.75;;;;;;;15.89;58.79;98192.34;6101844;23;20033;-94
2023/04/17 12:47:43;;;;;;;4.88;3.20;;;;;;;15.99;58.05;98198.91;6134670;23;20022;-92
2023/04/17 12:50:12;;;;;;;3.67;2.60;;;;;;;16.07;56.70;98193.97;6109288;23;20086;-93
2023/04/17 12:52:59;;;;;;;3.85;2.60;;;;;;;16.55;54.84;98188.47;6111126;23;20018;-93
2023/04/17 12:57:32;;;;;;;5.40;3.13;;;;;;;15.88;55.81;98185.28;6106847;23;20022;-94
2023/04/17 12:58:47;;;;;;;5.95;2.90;;;;;;;15.96;58.13;98224.09;6056317;23;20026;-91
2023/04/17 13:01:29;;;;;;;;;;;;;;;;;;;;;
2023/04/17 13:04:28;;;;;;;3.63;2.60;;;;;;;15.61;56.13;98186.75;6112907;23;20164;-93
2023/04/17 13:07:29;;;;;;;4.03;2.70;;;;;;;15.60;57.07;98221.66;6104192;23;20026;-94
2023/04/17 13:11:03;;;;;;;;;;;;;;;;;;;;;
2023/04/17 13:14:22;;;;;;;;;;;;;;;;;;;;;
2023/04/17 13:18:01;;;;;;;10.98;4.75;;;;;;;16.07;57.14;98220.81;6040128;23;20034;-94
2023/04/17 13:21:23;;;;;;;6.70;4.43;;;;;;;15.91;56.54;98174.38;6055134;23;20063;-94
2023/04/17 13:25:04;;;;;;;7.65;5.25;;;;;;;16.00;55.26;98176.50;6054059;23;20418;-93
2023/04/17 13:28:51;;;;;;;6.10;3.30;;;;;;;15.99;54.85;98193.56;5944825;24;20092;-94
2023/04/17 13:31:17;;;;;;;10.85;4.75;;;;;;;15.12;56.54;98192.16;5933846;24;20468;-93
2023/04/17 13:41:32;;;;;;;8.25;3.90;;;;;;;15.41;57.56;98222.69;5755319;25;20055;-94
2023/04/17 13:44:17;;;;;;;8.18;3.88;;;;;;;15.12;56.79;98192.16;5721461;25;20059;-92
2023/04/17 13:47:48;;;;;;;5.13;2.60;;;;;;;15.39;54.55;98195.09;5753715;25;20055;-93
2023/04/17 13:54:02;;;;;;;11.80;4.25;;;;;;;15.20;57.00;98210.47;5822957;24;20095;-93
2023/04/17 13:57:02;;;;;;;5.93;3.00;;;;;;;14.71;58.62;98176.53;5836531;24;20022;-94
2023/04/17 13:59:40;;;;;;;4.38;2.80;;;;;;;14.33;59.78;98202.56;5836749;24;20465;-93
2023/04/17 14:02:07;;;;;;;4.07;2.97;;;;;;;14.52;60.04;98214.03;5843662;24;20021;-91
2023/04/17 14:04:34;;;;;;;4.72;2.67;;;;;;;14.61;60.10;98206.53;5887319;24;20110;-93
2023/04/17 14:07:06;;;;;;;4.00;2.80;;;;;;;14.39;59.98;98192.41;5887385;24;20025;-94
2023/04/17 14:09:46;;;;;;;5.80;2.78;;;;;;;14.71;60.14;98223.84;5887287;24;20055;-94
2023/04/17 14:12:19;;;;;;;4.17;3.00;;;;;;;14.74;58.97;98212.94;5887711;24;20469;-94
2023/04/17 14:15:01;;;;;;;5.28;3.10;;;;;;;14.36;59.75;98186.38;5953652;23;20027;-94
2023/04/17 14:17:36;;;;;;;4.15;3.03;;;;;;;14.34;60.55;98197.16;6021700;23;20080;-94
2023/04/17 14:20:18;;;;;;;5.07;3.33;;;;;;;14.47;60.56;98225.94;6057261;23;20022;-92
2023/04/17 14:22:46;;;;;;;4.30;3.00;;;;;;;14.54;60.62;98225.53;6057552;23;20022;-91
2023/04/17 14:25:41;;;;;;;4.70;3.22;;;;;;;14.24;60.04;98176.28;6056843;23;20034;-94
2023/04/17 14:28:23;;;;;;;6.85;3.50;;;;;;;14.28;60.42;98177.88;6102492;23;20030;-92
2023/04/17 14:31:15;;;;;;;;;;;;;;;;;;;;;
2023/04/17 14:33:51;;;;;;;10.27;4.20;;;;;;;14.12;61.58;98175.13;6133895;23;20113;-94
2023/04/17 14:36:35;;;;;;;6.90;3.60;;;;;;;14.13;60.77;98180.38;6109544;23;20082;-93
2023/04/17 14:39:14;;;;;;;26.65;6.85;;;;;;;14.35;61.11;98222.06;6109839;23;20053;-93
2023/04/17 14:41:46;;;;;;;7.35;3.20;;;;;;;14.07;60.65;98202.06;6111709;23;20022;-93
2023/04/17 14:44:32;;;;;;;5.68;3.28;;;;;;;13.70;61.11;98173.66;6110395;23;20018;-93
2023/04/17 14:47:25;;;;;;;;;;;;;;;;;;;;;
2023/04/17 14:50:13;;;;;;;4.07;2.75;;;;;;;13.57;61.41;98194.75;6106075;23;20049;-91
2023/04/17 14:52:39;;;;;;;9.18;5.32;;;;;;;13.66;62.22;98229.06;6099517;23;20022;-94
2023/04/17 14:55:06;;;;;;;7.03;3.30;;;;;;;13.41;61.81;98193.78;6102370;23;20034;-94
2023/04/17 14:57:52;;;;;;;4.88;3.50;;;;;;;13.52;62.46;98223.50;6108241;23;20022;-93
2023/04/17 15:00:32;;;;;;;4.85;3.45;;;;;;;13.56;62.03;98231.28;6105725;23;20022;-95
2023/04/17 15:03:03;;;;;;;8.07;3.80;;;;;;;13.30;62.22;98189.81;6105687;23;20349;-94
2023/04/17 15:05:32;;;;;;;7.55;3.42;;;;;;;13.35;62.14;98195.78;6106276;23;20046;-92
2023/04/17 15:07:59;;;;;;;11.82;4.53;;;;;;;13.69;61.70;98236.06;6106813;23;20018;-93
2023/04/17 15:11:14;;;;;;;;;;;;;;;;;;;;;
2023/04/17 15:18:05;;;;;;;3.70;2.80;;;;;;;13.49;61.33;98194.28;5969687;24;20024;-93
2023/04/17 15:21:05;;;;;;;4.75;3.00;;;;;;;13.42;61.60;98199.03;5914225;24;20496;-95
2023/04/17 15:24:07;;;;;;;6.15;3.50;;;;;;;13.51;62.18;98219.97;5935610;24;20028;-91
2023/04/17 15:26:37;;;;;;;4.28;3.10;;;;;;;13.70;62.19;98238.63;5912076;24;20029;-91
2023/04/17 15:32:42;;;;;;;4.70;3.40;;;;;;;13.67;62.20;98201.38;5871558;24;20046;-95
2023/04/17 15:36:05;;;;;;;;;;;;;;;;;;;;;
2023/04/17 15:42:22;;;;;;;4.68;2.90;;;;;;;13.49;62.61;98199.63;5915304;24;20132;-94
2023/04/17 15:45:06;;;;;;;6.07;3.47;;;;;;;13.41;62.99;98193.78;5916896;24;20451;-92
2023/04/17 15:47:54;;;;;;;5.32;3.30;;;;;;;13.38;63.08;98202.81;5916094;24;20022;-92
2023/04/17 15:50:38;;;;;;;7.05;3.28;;;;;;;13.68;63.54;98237.84;5982822;23;20053;-96
2023/04/17 15:53:11;;;;;;;5.13;3.45;;;;;;;13.48;63.31;98216.56;6028215;23;20019;-94
2023/04/17 15:55:37;;;;;;;5.07;3.25;;;;;;;13.58;64.12;98225.88;6022687;23;20123;-95
2023/04/17 15:58:16;;;;;;;5.38;3.40;;;;;;;13.51;62.88;98189.69;6091698;23;20022;-93
2023/04/17 16:00:49;;;;;;;4.55;3.13;;;;;;;13.67;63.09;98233.44;6108916;23;20037;-94
2023/04/17 16:03:22;;;;;;;6.80;3.58;;;;;;;13.34;63.12;98214.56;6110084;23;20030;-93
2023/04/17 16:06:25;;;;;;;;;;;;;;;;;;;;;
2023/04/17 16:09:25;;;;;;;5.75;3.30;;;;;;;13.21;63.73;98192.03;6112806;23;20022;-94
2023/04/17 16:11:55;;;;;;;6.28;3.67;;;;;;;13.30;63.30;98186.28;6109322;23;20018;-93
2023/04/17 16:14:21;;;;;;;4.57;3.20;;;;;;;13.39;63.21;98201.00;6108254;23;20018;-92
2023/04/17 16:16:51;;;;;;;4.75;3.17;;;;;;;13.46;63.01;98213.09;6108776;23;20050;-92
2023/04/17 16:19:18;;;;;;;7.10;3.95;;;;;;;13.45;63.38;98219.41;6107710;23;20078;-92
2023/04/17 16:21:49;;;;;;;5.65;3.72;;;;;;;13.22;63.01;98177.72;6111991;23;20018;-92
2023/04/17 16:24:15;;;;;;;5.97;3.90;;;;;;;13.41;63.67;98225.81;6104906;23;20031;-93
2023/04/17 16:26:41;;;;;;;5.18;4.03;;;;;;;13.32;63.57;98219.97;6106074;23;20037;-93
2023/04/17 16:29:21;;;;;;;6.25;3.88;;;;;;;13.52;63.38;98227.03;6108839;23;20093;-93
2023/04/17 16:31:51;;;;;;;4.88;3.53;;;;;;;13.58;62.72;98228.56;6110491;23;20014;-92
2023/04/17 16:34:35;;;;;;;6.28;3.90;;;;;;;13.49;63.56;98226.34;6115058;23;20018;-94
2023/04/17 16:40:20;;;;;;;;;;;;;;;;;;;;;
2023/04/17 16:43:05;;;;;;;;;;;;;;;;;;;;;
2023/04/17 16:45:39;;;;;;;4.72;3.42;;;;;;;13.27;64.24;98243.34;5998255;23;20053;-91
2023/04/17 16:48:09;;;;;;;4.03;3.10;;;;;;;13.15;64.30;98219.84;5965029;24;20024;-92
2023/04/17 16:50:36;;;;;;;6.60;3.50;;;;;;;13.19;64.37;98204.56;5964503;24;20169;-92
2023/04/17 16:53:13;;;;;;;4.53;3.15;;;;;;;13.18;64.31;98221.50;5966813;24;20035;-93
2023/04/17 16:55:42;;;;;;;5.00;3.33;;;;;;;13.09;64.84;98217.47;5969984;24;20342;-93
2023/04/17 16:58:08;;;;;;;7.05;3.55;;;;;;;12.97;64.21;98192.22;5968154;24;20072;-93
2023/04/17 17:00:35;;;;;;;5.63;3.70;;;;;;;13.10;64.93;98241.44;5963249;24;20024;-92
2023/04/17 17:03:16;;;;;;;5.00;3.35;;;;;;;12.83;64.90;98190.16;5971812;24;20455;-93
2023/04/17 17:05:45;;;;;;;5.40;3.40;;;;;;;12.87;65.00;98212.25;5972676;24;20028;-92
2023/04/17 17:08:37;;;;;;;6.60;3.60;;;;;;;12.91;65.35;98240.53;5970567;24;20044;-93
2023/04/17 17:11:09;;;;;;;4.93;3.38;;;;;;;12.69;65.89;98205.94;5974152;24;20107;-94
2023/04/17 17:13:40;;;;;;;6.75;3.55;;;;;;;12.75;66.44;98245.66;5992954;24;20028;-93
2023/04/17 17:16:06;;;;;;;5.40;3.80;;;;;;;12.46;66.91;98201.63;5978186;23;20083;-91
2023/04/17 17:18:32;;;;;;;5.75;3.90;;;;;;;12.46;66.96;98196.28;6100218;23;20396;-94
2023/04/17 17:21:27;;;;;;;6.28;3.53;;;;;;;12.70;66.80;98248.53;6104617;23;20030;-93
2023/04/17 17:24:05;;;;;;;6.10;3.88;;;;;;;12.55;66.78;98217.22;6081809;23;20034;-92
2023/04/17 17:26:31;;;;;;;6.43;3.50;;;;;;;12.78;66.34;98236.69;6103589;23;20018;-92
2023/04/17 17:29:06;;;;;;;7.25;4.68;;;;;;;12.60;66.70;98238.34;6103634;23;20029;-93
2023/04/17 17:31:43;;;;;;;8.30;5.50;;;;;;;12.37;67.52;98210.88;6107493;23;20014;-93
2023/04/17 17:34:12;;;;;;;7.78;4.70;;;;;;;12.28;67.99;98213.97;6107356;23;20452;-91
2023/04/17 17:36:39;;;;;;;6.70;4.40;;;;;;;12.45;67.91;98242.56;6108018;23;20066;-94
2023/04/17 17:39:12;;;;;;;5.97;4.07;;;;;;;12.23;67.74;98215.94;6109722;23;20281;-94
2023/04/17 17:41:44;;;;;;;5.07;4.20;;;;;;;12.40;67.29;98228.53;6106273;23;20074;-93
2023/04/17 17:44:31;;;;;;;5.47;4.10;;;;;;;12.38;67.83;98247.28;6104624;23;20015;-92
2023/04/17 17:47:01;;;;;;;7.78;5.55;;;;;;;12.10;68.34;98211.13;6094734;23;20023;-94
2023/04/17 17:49:52;;;;;;;6.15;4.50;;;;;;;12.08;68.19;98210.34;6102542;23;20503;-93
2023/04/17 17:52:43;;;;;;;5.72;3.95;;;;;;;12.20;69.09;98243.59;6103922;23;20113;-93
2023/04/17 17:55:35;;;;;;;6.18;4.30;;;;;;;11.98;69.02;98211.66;6104202;23;20029;-95